Dyce, United Kingdom
Current Conditions -  °F | °C
As of 2:50 AM on Saturday 22 Nov 2014 (Local Time) from EGPD Reporting Station
Light Rain Light Rain  
Wind Chill: 41°   Ceiling: 1000
Heat Index: 48°   Visibility: 4mi
Dew Point: 46°   Wind: 21mph
Humidity: 93%   Direction: 140°SE
Pressure: 29.83"   Gusts: NA
Location:  57.25°N, 2.23°W
Report Text: EGPD 220250Z AUTO 14018KT 6000 -RA BKN010/// 09/08 Q1010 RERA
Loading
Personal Weather Stations






























Interactive Weather Map New forecast layout! Learn more

10-Day Weather Forecast

Advertisements
Track Severe Weather on mobile